Time,TemperatureF,DewpointF,PressureIn,WindDirection,WindDirectionDegrees,WindSpeedMPH,WindSpeedGustMPH,Humidity,HourlyPrecipIn,Conditions,Clouds,dailyrainin,SoftwareType,DateUTC
2013-03-19 00:02:00,46.0,44.0,-100.00,NW,306,4.0,6.0,93,-99.99,,,-99.99,,2013-03-19 07:02:00,
2013-03-19 00:12:00,46.0,45.0,-100.00,NE,34,4.0,4.0,96,-99.99,,,-99.99,,2013-03-19 07:12:00,
2013-03-19 00:21:00,48.0,46.0,-100.00,East,84,3.0,4.0,93,-99.99,,,-99.99,,2013-03-19 07:21:00,
2013-03-19 00:32:00,50.0,45.0,-100.00,NE,55,3.0,4.0,82,-99.99,,,-99.99,,2013-03-19 07:32:00,
2013-03-19 00:42:00,52.0,44.0,-100.00,NE,55,3.0,3.0,74,-99.99,,,-99.99,,2013-03-19 07:42:00,
2013-03-19 00:52:00,52.0,43.0,-100.00,ENE,66,3.0,3.0,70,-99.99,,,-99.99,,2013-03-19 07:52:00,
2013-03-19 01:02:00,52.0,42.0,-100.00,NE,50,2.0,4.0,68,-99.99,,,-99.99,,2013-03-19 08:02:00,
2013-03-19 01:12:00,51.0,40.0,-100.00,NE,47,3.0,4.0,65,-99.99,,,-99.99,,2013-03-19 08:12:00,
2013-03-19 01:21:00,52.0,38.0,-100.00,NE,54,3.0,4.0,59,-99.99,,,-99.99,,2013-03-19 08:21:00,
2013-03-19 01:32:00,52.0,38.0,-100.00,NE,54,3.0,4.0,59,-99.99,,,-99.99,,2013-03-19 08:32:00,
2013-03-19 01:42:00,51.0,36.0,-100.00,East,90,3.0,5.0,56,-99.99,,,-99.99,,2013-03-19 08:42:00,
2013-03-19 01:52:00,49.0,35.0,-100.00,ESE,115,3.0,6.0,59,-99.99,,,-99.99,,2013-03-19 08:52:00,
2013-03-19 02:02:00,48.0,36.0,-100.00,ESE,110,2.0,7.0,64,-99.99,,,-99.99,,2013-03-19 09:02:00,
2013-03-19 02:12:00,48.0,36.0,-100.00,East,90,4.0,6.0,63,-99.99,,,-99.99,,2013-03-19 09:12:00,
2013-03-19 02:22:00,48.0,36.0,-100.00,ESE,122,3.0,7.0,63,-99.99,,,-99.99,,2013-03-19 09:22:00,
2013-03-19 02:32:00,48.0,36.0,-100.00,SE,124,4.0,6.0,63,-99.99,,,-99.99,,2013-03-19 09:32:00,
2013-03-19 02:42:00,48.0,35.0,-100.00,ESE,116,5.0,8.0,60,-99.99,,,-99.99,,2013-03-19 09:42:00,
2013-03-19 02:52:00,51.0,34.0,-100.00,ESE,105,5.0,7.0,53,-99.99,,,-99.99,,2013-03-19 09:52:00,
2013-03-19 03:03:00,50.0,34.0,-100.00,East,91,5.0,5.0,54,-99.99,,,-99.99,,2013-03-19 10:03:00,
2013-03-19 03:12:00,50.0,33.0,-100.00,East,79,4.0,5.0,52,-99.99,,,-99.99,,2013-03-19 10:12:00,
2013-03-19 03:22:00,52.0,31.0,-100.00,ESE,105,4.0,4.0,45,-99.99,,,-99.99,,2013-03-19 10:22:00,
2013-03-19 03:32:00,53.0,31.0,-100.00,SE,139,3.0,3.0,42,-99.99,,,-99.99,,2013-03-19 10:32:00,
2013-03-19 03:42:00,53.0,31.0,-100.00,SW,226,3.0,4.0,43,-99.99,,,-99.99,,2013-03-19 10:42:00,
2013-03-19 03:52:00,51.0,32.0,-100.00,West,281,2.0,4.0,48,-99.99,,,-99.99,,2013-03-19 10:52:00,
2013-03-19 04:02:00,50.0,33.0,-100.00,WNW,301,3.0,3.0,51,-99.99,,,-99.99,,2013-03-19 11:02:00,
2013-03-19 04:12:00,50.0,32.0,-100.00,ESE,110,1.0,3.0,49,-99.99,,,-99.99,,2013-03-19 11:12:00,
2013-03-19 04:22:00,51.0,31.0,-100.00,ESE,113,2.0,5.0,47,-99.99,,,-99.99,,2013-03-19 11:22:00,
2013-03-19 04:32:00,51.0,31.0,-100.00,East,94,3.0,5.0,47,-99.99,,,-99.99,,2013-03-19 11:32:00,
2013-03-19 04:42:00,51.0,31.0,-100.00,East,100,3.0,4.0,46,-99.99,,,-99.99,,2013-03-19 11:42:00,
2013-03-19 04:52:00,52.0,31.0,-100.00,ESE,114,3.0,5.0,44,-99.99,,,-99.99,,2013-03-19 11:52:00,
2013-03-19 05:02:00,52.0,31.0,-100.00,SE,135,3.0,6.0,44,-99.99,,,-99.99,,2013-03-19 12:02:00,
2013-03-19 05:12:00,52.0,31.0,-100.00,SE,140,4.0,5.0,44,-99.99,,,-99.99,,2013-03-19 12:12:00,
2013-03-19 05:22:00,52.0,32.0,-100.00,SE,143,4.0,5.0,46,-99.99,,,-99.99,,2013-03-19 12:22:00,
2013-03-19 05:32:00,52.0,33.0,-100.00,SE,138,3.0,4.0,49,-99.99,,,-99.99,,2013-03-19 12:32:00,
2013-03-19 05:51:00,45.0,35.0,-100.00,WNW,303,4.0,7.0,68,-99.99,,,-99.99,,2013-03-19 12:51:00,
2013-03-19 06:02:00,41.0,39.0,-100.00,NW,310,5.0,7.0,92,-99.99,,,-99.99,,2013-03-19 13:02:00,
2013-03-19 06:12:00,41.0,39.0,-100.00,NNW,345,4.0,4.0,94,-99.99,,,-99.99,,2013-03-19 13:12:00,
2013-03-19 06:22:00,47.0,36.0,-100.00,East,79,2.0,4.0,65,-99.99,,,-99.99,,2013-03-19 13:22:00,
2013-03-19 06:32:00,49.0,35.0,-100.00,ENE,60,3.0,5.0,58,-99.99,,,-99.99,,2013-03-19 13:32:00,
2013-03-19 06:42:00,49.0,33.0,-100.00,East,91,3.0,5.0,54,-99.99,,,-99.99,,2013-03-19 13:42:00,
2013-03-19 06:52:00,50.0,33.0,-100.00,East,100,3.0,5.0,51,-99.99,,,-99.99,,2013-03-19 13:52:00,
2013-03-19 07:01:00,50.0,33.0,-100.00,East,100,3.0,5.0,51,-99.99,,,-99.99,,2013-03-19 14:01:00,
2013-03-19 07:12:00,51.0,30.0,-100.00,East,99,4.0,5.0,45,-99.99,,,-99.99,,2013-03-19 14:12:00,
2013-03-19 07:22:00,52.0,31.0,-100.00,ESE,116,4.0,5.0,45,-99.99,,,-99.99,,2013-03-19 14:22:00,
2013-03-19 07:32:00,51.0,31.0,-100.00,SE,128,4.0,5.0,46,-99.99,,,-99.99,,2013-03-19 14:32:00,
2013-03-19 07:42:00,50.0,29.0,-100.00,ESE,114,4.0,6.0,44,-99.99,,,-99.99,,2013-03-19 14:42:00,
2013-03-19 07:52:00,51.0,29.0,-100.00,East,97,4.0,6.0,43,-99.99,,,-99.99,,2013-03-19 14:52:00,
2013-03-19 08:02:00,50.0,29.0,-100.00,ESE,104,3.0,7.0,44,-99.99,,,-99.99,,2013-03-19 15:02:00,
2013-03-19 08:12:00,50.0,29.0,-100.00,East,84,4.0,7.0,45,-99.99,,,-99.99,,2013-03-19 15:12:00,
2013-03-19 08:22:00,51.0,31.0,-100.00,East,93,4.0,5.0,46,-99.99,,,-99.99,,2013-03-19 15:22:00,
2013-03-19 08:33:00,51.0,31.0,-100.00,East,98,4.0,6.0,46,-99.99,,,-99.99,,2013-03-19 15:33:00,
2013-03-19 08:53:00,54.0,32.0,-100.00,East,94,3.0,4.0,43,-99.99,,,-99.99,,2013-03-19 15:53:00,
2013-03-19 09:03:00,55.0,33.0,-100.00,East,97,3.0,5.0,43,-99.99,,,-99.99,,2013-03-19 16:03:00,
2013-03-19 09:13:00,56.0,34.0,-100.00,ESE,123,3.0,4.0,43,-99.99,,,-99.99,,2013-03-19 16:13:00,
2013-03-19 09:23:00,58.0,34.0,-100.00,ESE,121,3.0,4.0,41,-99.99,,,-99.99,,2013-03-19 16:23:00,
2013-03-19 09:33:00,59.0,34.0,-100.00,SE,137,2.0,5.0,39,-99.99,,,-99.99,,2013-03-19 16:33:00,
2013-03-19 09:43:00,59.0,32.0,-100.00,SSE,166,3.0,5.0,36,-99.99,,,-99.99,,2013-03-19 16:43:00,
2013-03-19 10:02:00,61.0,35.0,-100.00,South,170,3.0,5.0,38,-99.99,,,-99.99,,2013-03-19 17:02:00,
2013-03-19 10:13:00,62.0,36.0,-100.00,South,187,2.0,6.0,38,-99.99,,,-99.99,,2013-03-19 17:13:00,
2013-03-19 10:23:00,61.0,36.0,-100.00,SSE,168,3.0,7.0,39,-99.99,,,-99.99,,2013-03-19 17:23:00,
2013-03-19 10:34:00,61.0,36.0,-100.00,South,170,5.0,7.0,40,-99.99,,,-99.99,,2013-03-19 17:34:00,
2013-03-19 10:43:00,63.0,36.0,-100.00,West,276,4.0,6.0,37,-99.99,,,-99.99,,2013-03-19 17:43:00,
2013-03-19 10:52:00,63.0,36.0,-100.00,NW,310,2.0,6.0,36,-99.99,,,-99.99,,2013-03-19 17:52:00,
2013-03-19 11:02:00,63.0,35.0,-100.00,NW,312,3.0,9.0,35,-99.99,,,-99.99,,2013-03-19 18:02:00,
2013-03-19 11:13:00,62.0,36.0,-100.00,NW,307,4.0,9.0,38,-99.99,,,-99.99,,2013-03-19 18:13:00,
2013-03-19 11:23:00,62.0,36.0,-100.00,NW,306,5.0,9.0,38,-99.99,,,-99.99,,2013-03-19 18:23:00,
2013-03-19 11:33:00,62.0,37.0,-100.00,NW,304,4.0,9.0,39,-99.99,,,-99.99,,2013-03-19 18:33:00,
2013-03-19 11:42:00,62.0,37.0,-100.00,West,281,4.0,7.0,39,-99.99,,,-99.99,,2013-03-19 18:42:00,
2013-03-19 11:52:00,63.0,40.0,-100.00,WNW,298,3.0,6.0,42,-99.99,,,-99.99,,2013-03-19 18:52:00,
2013-03-19 12:02:00,63.0,40.0,-100.00,West,269,3.0,8.0,42,-99.99,,,-99.99,,2013-03-19 19:02:00,
2013-03-19 12:12:00,64.0,40.0,-100.00,NW,304,3.0,6.0,41,-99.99,,,-99.99,,2013-03-19 19:12:00,
2013-03-19 12:22:00,65.0,40.0,-100.00,NW,309,3.0,9.0,40,-99.99,,,-99.99,,2013-03-19 19:22:00,
2013-03-19 12:32:00,66.0,40.0,-100.00,WNW,299,4.0,10.0,39,-99.99,,,-99.99,,2013-03-19 19:32:00,
2013-03-19 12:42:00,66.0,41.0,-100.00,WNW,299,4.0,10.0,40,-99.99,,,-99.99,,2013-03-19 19:42:00,
2013-03-19 12:52:00,66.0,41.0,-100.00,NW,304,5.0,10.0,40,-99.99,,,-99.99,,2013-03-19 19:52:00,
2013-03-19 13:02:00,66.0,41.0,-100.00,NW,304,5.0,10.0,40,-99.99,,,-99.99,,2013-03-19 20:02:00,
2013-03-19 13:11:00,67.0,42.0,-100.00,WNW,297,5.0,10.0,40,-99.99,,,-99.99,,2013-03-19 20:11:00,
2013-03-19 13:22:00,67.0,43.0,-100.00,WNW,296,5.0,11.0,42,-99.99,,,-99.99,,2013-03-19 20:22:00,
2013-03-19 13:32:00,67.0,42.0,-100.00,WNW,293,6.0,13.0,40,-99.99,,,-99.99,,2013-03-19 20:32:00,
2013-03-19 13:42:00,68.0,43.0,-100.00,WNW,303,5.0,11.0,41,-99.99,,,-99.99,,2013-03-19 20:42:00,
2013-03-19 13:52:00,68.0,44.0,-100.00,WNW,292,5.0,12.0,42,-99.99,,,-99.99,,2013-03-19 20:52:00,
2013-03-19 14:01:00,68.0,43.0,-100.00,WNW,289,5.0,10.0,40,-99.99,,,-99.99,,2013-03-19 21:01:00,
2013-03-19 14:11:00,68.0,42.0,-100.00,WNW,284,5.0,10.0,39,-99.99,,,-99.99,,2013-03-19 21:11:00,
2013-03-19 14:22:00,67.0,42.0,-100.00,West,277,5.0,11.0,40,-99.99,,,-99.99,,2013-03-19 21:22:00,
2013-03-19 14:33:00,67.0,43.0,-100.00,West,278,5.0,11.0,41,-99.99,,,-99.99,,2013-03-19 21:33:00,
2013-03-19 14:42:00,67.0,43.0,-100.00,West,280,4.0,11.0,42,-99.99,,,-99.99,,2013-03-19 21:42:00,
2013-03-19 14:52:00,67.0,44.0,-100.00,WNW,293,5.0,14.0,43,-99.99,,,-99.99,,2013-03-19 21:52:00,
2013-03-19 15:02:00,67.0,44.0,-100.00,WNW,293,5.0,11.0,44,-99.99,,,-99.99,,2013-03-19 22:02:00,
2013-03-19 15:12:00,67.0,44.0,-100.00,West,267,5.0,13.0,43,-99.99,,,-99.99,,2013-03-19 22:12:00,
2013-03-19 15:22:00,66.0,43.0,-100.00,West,265,5.0,13.0,43,-99.99,,,-99.99,,2013-03-19 22:22:00,
2013-03-19 15:32:00,67.0,44.0,-100.00,West,279,5.0,11.0,43,-99.99,,,-99.99,,2013-03-19 22:32:00,
2013-03-19 15:43:00,66.0,44.0,-100.00,WNW,289,5.0,12.0,45,-99.99,,,-99.99,,2013-03-19 22:43:00,
2013-03-19 15:52:00,66.0,43.0,-100.00,WNW,300,5.0,13.0,44,-99.99,,,-99.99,,2013-03-19 22:52:00,
2013-03-19 16:02:00,66.0,43.0,-100.00,WNW,294,6.0,12.0,44,-99.99,,,-99.99,,2013-03-19 23:02:00,
2013-03-19 16:12:00,66.0,45.0,-100.00,NW,311,6.0,12.0,46,-99.99,,,-99.99,,2013-03-19 23:12:00,
2013-03-19 16:22:00,66.0,45.0,-100.00,WNW,299,7.0,11.0,46,-99.99,,,-99.99,,2013-03-19 23:22:00,
2013-03-19 16:32:00,67.0,46.0,-100.00,WNW,294,5.0,11.0,47,-99.99,,,-99.99,,2013-03-19 23:32:00,
2013-03-19 16:42:00,66.0,45.0,-100.00,NW,304,5.0,13.0,47,-99.99,,,-99.99,,2013-03-19 23:42:00,
2013-03-19 16:52:00,66.0,46.0,-100.00,NW,310,7.0,10.0,48,-99.99,,,-99.99,,2013-03-19 23:52:00,
2013-03-19 17:02:00,65.0,46.0,-100.00,NW,305,5.0,11.0,51,-99.99,,,-99.99,,2013-03-20 00:02:00,
2013-03-19 17:12:00,64.0,47.0,-100.00,NW,304,5.0,12.0,53,-99.99,,,-99.99,,2013-03-20 00:12:00,
2013-03-19 17:22:00,64.0,47.0,-100.00,WNW,294,6.0,9.0,54,-99.99,,,-99.99,,2013-03-20 00:22:00,
2013-03-19 17:32:00,63.0,48.0,-100.00,NW,305,5.0,12.0,57,-99.99,,,-99.99,,2013-03-20 00:32:00,
2013-03-19 17:42:00,62.0,48.0,-100.00,WNW,295,6.0,10.0,60,-99.99,,,-99.99,,2013-03-20 00:42:00,
2013-03-19 17:52:00,62.0,48.0,-100.00,WNW,298,5.0,9.0,61,-99.99,,,-99.99,,2013-03-20 00:52:00,
2013-03-19 18:02:00,61.0,48.0,-100.00,WNW,299,5.0,10.0,63,-99.99,,,-99.99,,2013-03-20 01:02:00,
2013-03-19 18:12:00,61.0,49.0,-100.00,WNW,299,4.0,9.0,64,-99.99,,,-99.99,,2013-03-20 01:12:00,
2013-03-19 18:22:00,60.0,48.0,-100.00,WNW,297,5.0,8.0,65,-99.99,,,-99.99,,2013-03-20 01:22:00,
2013-03-19 18:32:00,59.0,48.0,-100.00,WNW,297,4.0,7.0,68,-99.99,,,-99.99,,2013-03-20 01:32:00,
2013-03-19 18:42:00,58.0,48.0,-100.00,NW,306,4.0,7.0,70,-99.99,,,-99.99,,2013-03-20 01:42:00,
2013-03-19 18:52:00,58.0,49.0,-100.00,NW,308,4.0,7.0,72,-99.99,,,-99.99,,2013-03-20 01:52:00,
2013-03-19 19:02:00,57.0,48.0,-100.00,NW,309,4.0,7.0,73,-99.99,,,-99.99,,2013-03-20 02:02:00,
2013-03-19 19:11:00,57.0,49.0,-100.00,NW,314,5.0,7.0,75,-99.99,,,-99.99,,2013-03-20 02:11:00,
2013-03-19 19:21:00,56.0,49.0,-100.00,NW,309,5.0,6.0,77,-99.99,,,-99.99,,2013-03-20 02:21:00,
2013-03-19 19:32:00,55.0,48.0,-100.00,NW,307,5.0,7.0,78,-99.99,,,-99.99,,2013-03-20 02:32:00,
2013-03-19 19:42:00,55.0,49.0,-100.00,NW,313,5.0,7.0,79,-99.99,,,-99.99,,2013-03-20 02:42:00,
2013-03-19 19:52:00,55.0,49.0,-100.00,NW,312,5.0,5.0,80,-99.99,,,-99.99,,2013-03-20 02:52:00,
2013-03-19 20:01:00,55.0,49.0,-100.00,NW,319,4.0,5.0,80,-99.99,,,-99.99,,2013-03-20 03:01:00,
2013-03-19 20:12:00,54.0,48.0,-100.00,NNW,341,4.0,5.0,81,-99.99,,,-99.99,,2013-03-20 03:12:00,
2013-03-19 20:22:00,54.0,47.0,-100.00,NNW,340,4.0,4.0,78,-99.99,,,-99.99,,2013-03-20 03:22:00,
2013-03-19 20:33:00,55.0,47.0,-100.00,NNW,336,3.0,4.0,75,-99.99,,,-99.99,,2013-03-20 03:33:00,
2013-03-19 20:42:00,55.0,46.0,-100.00,NNW,337,3.0,6.0,72,-99.99,,,-99.99,,2013-03-20 03:42:00,
2013-03-19 20:52:00,55.0,45.0,-100.00,NNW,343,4.0,5.0,70,-99.99,,,-99.99,,2013-03-20 03:52:00,
2013-03-19 21:02:00,55.0,45.0,-100.00,NNW,335,4.0,7.0,69,-99.99,,,-99.99,,2013-03-20 04:02:00,
2013-03-19 21:12:00,55.0,45.0,-100.00,NNW,337,5.0,7.0,70,-99.99,,,-99.99,,2013-03-20 04:12:00,
2013-03-19 21:22:00,55.0,45.0,-100.00,NNW,337,6.0,8.0,68,-99.99,,,-99.99,,2013-03-20 04:22:00,
2013-03-19 21:32:00,55.0,44.0,-100.00,NNW,337,5.0,6.0,67,-99.99,,,-99.99,,2013-03-20 04:32:00,
2013-03-19 21:43:00,54.0,44.0,-100.00,NNW,340,5.0,6.0,68,-99.99,,,-99.99,,2013-03-20 04:43:00,
2013-03-19 21:52:00,54.0,43.0,-100.00,NNW,340,4.0,5.0,67,-99.99,,,-99.99,,2013-03-20 04:52:00,
2013-03-19 22:02:00,54.0,42.0,-100.00,NNW,336,4.0,4.0,64,-99.99,,,-99.99,,2013-03-20 05:02:00,
2013-03-19 22:12:00,55.0,41.0,-100.00,NNW,336,3.0,3.0,58,-99.99,,,-99.99,,2013-03-20 05:12:00,
2013-03-19 22:22:00,55.0,41.0,-100.00,NNW,339,2.0,4.0,59,-99.99,,,-99.99,,2013-03-20 05:22:00,
2013-03-19 22:32:00,55.0,42.0,-100.00,NNW,346,3.0,4.0,61,-99.99,,,-99.99,,2013-03-20 05:32:00,
2013-03-19 22:42:00,56.0,41.0,-100.00,NNW,345,3.0,4.0,57,-99.99,,,-99.99,,2013-03-20 05:42:00,
2013-03-19 22:52:00,56.0,38.0,-100.00,NNW,341,3.0,4.0,51,-99.99,,,-99.99,,2013-03-20 05:52:00,
2013-03-19 23:02:00,57.0,37.0,-100.00,NNE,20,3.0,4.0,47,-99.99,,,-99.99,,2013-03-20 06:02:00,
2013-03-19 23:12:00,58.0,37.0,-100.00,North,357,3.0,3.0,45,-99.99,,,-99.99,,2013-03-20 06:12:00,
2013-03-19 23:22:00,58.0,36.0,-100.00,North,8,2.0,4.0,44,-99.99,,,-99.99,,2013-03-20 06:22:00,
2013-03-19 23:32:00,58.0,37.0,-100.00,North,351,2.0,3.0,45,-99.99,,,-99.99,,2013-03-20 06:32:00,
2013-03-19 23:42:00,58.0,36.0,-100.00,NNW,340,2.0,3.0,44,-99.99,,,-99.99,,2013-03-20 06:42:00,
2013-03-19 23:52:00,59.0,36.0,-100.00,North,349,2.0,2.0,42,-99.99,,,-99.99,,2013-03-20 06:52:00,